Time;durP1;ratioP1;P1;durP2;ratioP2;P2;SDS_P1;SDS_P2;PMS_P1;PMS_P2;Temp;Humidity;BMP_temperature;BMP_pressure;BME280_temperature;BME280_humidity;BME280_pressure;Samples;Min_cycle;Max_cycle;Signal;HPM_P1;HPM_P2
2022/09/14 00:01:35;;;;;;;9.50;2.42;;;13.40;99.90;;;;;;5062121;28;20491;-64
2022/09/14 00:04:07;;;;;;;9.52;2.30;;;13.40;99.90;;;;;;5062037;28;20117;-64
2022/09/14 00:06:34;;;;;;;7.90;2.65;;;13.40;99.90;;;;;;5060060;28;20102;-64
2022/09/14 00:09:00;;;;;;;6.40;2.22;;;13.40;99.90;;;;;;5057005;28;20048;-65
2022/09/14 00:11:28;;;;;;;6.18;2.78;;;13.30;99.90;;;;;;5061701;28;20124;-65
2022/09/14 00:13:56;;;;;;;9.48;2.85;;;13.30;99.90;;;;;;5045165;28;20095;-65
2022/09/14 00:16:26;;;;;;;5.88;2.17;;;13.20;99.90;;;;;;5060128;28;20564;-64
2022/09/14 00:18:54;;;;;;;8.70;2.45;;;13.30;99.90;;;;;;5045269;28;20084;-64
2022/09/14 00:21:20;;;;;;;7.45;2.22;;;13.30;99.90;;;;;;5056095;28;20060;-65
2022/09/14 00:23:46;;;;;;;7.30;2.30;;;13.40;99.90;;;;;;5049435;28;20087;-64
2022/09/14 00:26:15;;;;;;;6.40;2.10;;;13.40;99.90;;;;;;5051958;28;20076;-64
2022/09/14 00:28:50;;;;;;;6.97;2.50;;;13.30;99.90;;;;;;5054562;28;20041;-64
2022/09/14 00:31:16;;;;;;;7.65;2.50;;;13.20;99.90;;;;;;5045635;28;20048;-64
2022/09/14 00:33:44;;;;;;;7.05;2.53;;;13.20;99.90;;;;;;5059405;28;20351;-64
2022/09/14 00:36:18;;;;;;;5.75;2.22;;;13.20;99.90;;;;;;5044821;28;20048;-65
2022/09/14 00:38:45;;;;;;;8.13;2.30;;;13.30;99.90;;;;;;5055176;28;20144;-65
2022/09/14 00:41:15;;;;;;;5.90;2.17;;;13.30;99.90;;;;;;5048416;28;20832;-64
2022/09/14 00:44:03;;;;;;;9.55;2.38;;;13.40;99.90;;;;;;5050761;28;20088;-65
2022/09/14 00:46:35;;;;;;;6.68;2.30;;;13.40;99.90;;;;;;5055987;28;20309;-64
2022/09/14 00:49:04;;;;;;;5.32;2.38;;;13.50;99.90;;;;;;5043733;28;20075;-64
2022/09/14 00:51:32;;;;;;;8.75;2.67;;;13.50;99.90;;;;;;5058272;28;20116;-64
2022/09/14 00:54:02;;;;;;;8.38;2.67;;;13.60;99.90;;;;;;5045060;28;20047;-66
2022/09/14 00:56:28;;;;;;;7.53;2.47;;;13.70;99.90;;;;;;5053030;28;20277;-64
2022/09/14 00:58:56;;;;;;;6.97;2.78;;;13.70;99.90;;;;;;5051889;28;20048;-64
2022/09/14 01:01:22;;;;;;;9.80;2.50;;;13.70;99.90;;;;;;5048851;28;20048;-66
2022/09/14 01:03:48;;;;;;;5.15;2.25;;;13.40;99.90;;;;;;5056437;28;20101;-65
2022/09/14 01:06:34;;;;;;;7.43;2.35;;;13.60;99.90;;;;;;5050963;28;20053;-65
2022/09/14 01:09:27;;;;;;;5.38;2.25;;;13.70;99.90;;;;;;5057023;28;20080;-65
2022/09/14 01:12:07;;;;;;;8.23;2.83;;;13.70;99.90;;;;;;5059762;28;20048;-65
2022/09/14 01:14:40;;;;;;;7.38;2.60;;;13.70;99.90;;;;;;5046934;28;20060;-65
2022/09/14 01:17:24;;;;;;;8.40;2.17;;;13.70;99.90;;;;;;5058262;28;20109;-65
2022/09/14 01:20:09;;;;;;;5.88;2.20;;;13.70;99.90;;;;;;5044351;28;20036;-65
2022/09/14 01:22:57;;;;;;;6.50;2.08;;;13.60;99.90;;;;;;5061245;28;20445;-66
2022/09/14 01:25:39;;;;;;;8.32;2.30;;;13.60;99.90;;;;;;5046456;28;20084;-65
2022/09/14 01:28:14;;;;;;;6.50;2.40;;;13.60;99.90;;;;;;5057940;28;20056;-65
2022/09/14 01:30:42;;;;;;;5.45;1.90;;;13.50;99.90;;;;;;5042645;28;20063;-65
2022/09/14 01:33:22;;;;;;;8.23;2.20;;;13.50;99.90;;;;;;5059838;28;20054;-65
2022/09/14 01:35:55;;;;;;;6.15;1.90;;;13.60;99.90;;;;;;5052858;28;20132;-65
2022/09/14 01:38:29;;;;;;;6.28;1.80;;;13.50;99.90;;;;;;5053113;28;20072;-65
2022/09/14 01:40:56;;;;;;;6.15;2.40;;;13.50;99.90;;;;;;5046506;28;20152;-64
2022/09/14 01:43:41;;;;;;;7.55;2.00;;;13.50;99.90;;;;;;5058150;28;20048;-65
2022/09/14 01:46:15;;;;;;;7.80;2.20;;;13.40;99.90;;;;;;5045034;28;20083;-65
2022/09/14 01:48:57;;;;;;;7.35;2.17;;;13.40;99.90;;;;;;5060482;28;20080;-64
2022/09/14 01:51:32;;;;;;;10.60;2.90;;;13.40;99.90;;;;;;5049957;28;20033;-66
2022/09/14 01:54:08;;;;;;;6.60;2.60;;;13.40;99.90;;;;;;5055092;28;20059;-65
2022/09/14 01:56:40;;;;;;;9.93;2.90;;;13.30;99.90;;;;;;5042209;28;20049;-65
2022/09/14 01:59:24;;;;;;;7.50;2.50;;;13.30;99.90;;;;;;5042725;28;20056;-65
2022/09/14 02:02:04;;;;;;;6.57;2.80;;;13.30;99.90;;;;;;5056314;28;20079;-65
2022/09/14 02:05:02;;;;;;;8.57;2.70;;;13.20;99.90;;;;;;5060500;28;20473;-65
2022/09/14 02:07:28;;;;;;;8.05;3.20;;;13.30;99.90;;;;;;5054035;28;20079;-65
2022/09/14 02:09:55;;;;;;;6.43;2.40;;;13.30;99.90;;;;;;5059798;28;20131;-65
2022/09/14 02:12:22;;;;;;;5.35;2.38;;;13.20;99.90;;;;;;5059842;28;20057;-65
2022/09/14 02:14:51;;;;;;;7.95;3.00;;;13.30;99.90;;;;;;5061383;28;20045;-65
2022/09/14 02:17:16;;;;;;;5.75;2.63;;;13.20;99.90;;;;;;5060602;28;20692;-65
2022/09/14 02:19:57;;;;;;;8.23;2.83;;;13.10;99.90;;;;;;5049413;28;20223;-65
2022/09/14 02:22:25;;;;;;;8.48;3.72;;;13.10;99.90;;;;;;5058282;28;20045;-65
2022/09/14 02:24:51;;;;;;;6.93;3.72;;;13.00;99.90;;;;;;5063981;28;20044;-65
2022/09/14 02:27:17;;;;;;;6.60;3.63;;;13.00;99.90;;;;;;5062657;28;20106;-65
2022/09/14 02:29:43;;;;;;;9.15;4.35;;;12.90;99.90;;;;;;5060977;28;20653;-65
2022/09/14 02:32:38;;;;;;;12.15;4.47;;;12.90;99.90;;;;;;5049567;28;20580;-66
2022/09/14 02:35:21;;;;;;;8.77;4.22;;;12.90;99.90;;;;;;5064256;28;20036;-65
2022/09/14 02:37:51;;;;;;;7.93;3.88;;;12.90;99.90;;;;;;5062107;28;20136;-65
2022/09/14 02:40:37;;;;;;;7.90;4.00;;;12.80;99.90;;;;;;5045292;28;20052;-65
2022/09/14 02:43:17;;;;;;;10.02;4.30;;;12.80;99.90;;;;;;5058451;28;20048;-65
2022/09/14 02:46:28;;;;;;;9.23;3.78;;;12.80;99.90;;;;;;5052489;28;20122;-65
2022/09/14 02:49:19;;;;;;;8.10;3.55;;;12.80;99.90;;;;;;5039372;28;20063;-65
2022/09/14 02:52:11;;;;;;;9.45;3.78;;;12.80;99.90;;;;;;5047475;28;20056;-65
2022/09/14 02:55:01;;;;;;;6.63;3.80;;;12.80;99.90;;;;;;5062662;28;20059;-66
2022/09/14 02:57:27;;;;;;;10.18;3.78;;;12.90;99.90;;;;;;5043717;28;20068;-65
2022/09/14 02:59:53;;;;;;;8.27;3.60;;;12.80;99.90;;;;;;5062299;28;20402;-65
2022/09/14 03:02:19;;;;;;;10.65;4.10;;;12.90;99.90;;;;;;5046082;28;20052;-65
2022/09/14 03:04:45;;;;;;;7.75;3.80;;;13.00;99.90;;;;;;5058457;28;20049;-65
2022/09/14 03:07:11;;;;;;;7.57;3.72;;;13.00;99.90;;;;;;5057412;28;20106;-65
2022/09/14 03:09:36;;;;;;;7.50;3.67;;;13.00;99.90;;;;;;5062621;28;20049;-65
2022/09/14 03:12:02;;;;;;;7.78;3.40;;;13.00;99.90;;;;;;5063601;28;20048;-65
2022/09/14 03:14:28;;;;;;;6.90;3.30;;;13.00;99.90;;;;;;5048893;28;20288;-65
2022/09/14 03:16:53;;;;;;;9.57;3.70;;;13.00;99.90;;;;;;5058024;28;20131;-65
2022/09/14 03:19:19;;;;;;;7.45;3.53;;;13.00;99.90;;;;;;5047579;28;20063;-64
2022/09/14 03:21:44;;;;;;;9.27;3.88;;;13.10;99.90;;;;;;5060546;28;20044;-64
2022/09/14 03:24:10;;;;;;;7.32;3.42;;;13.10;99.90;;;;;;5045084;28;20049;-65
2022/09/14 03:26:37;;;;;;;7.20;3.30;;;13.10;99.90;;;;;;5058173;28;20510;-64
2022/09/14 03:29:04;;;;;;;5.93;3.15;;;13.10;99.90;;;;;;5050131;28;20044;-65
2022/09/14 03:31:31;;;;;;;8.63;3.80;;;13.10;99.90;;;;;;5053762;28;20098;-64
2022/09/14 03:33:59;;;;;;;9.20;3.38;;;13.10;99.90;;;;;;5052353;28;20044;-65
2022/09/14 03:36:26;;;;;;;8.23;3.20;;;13.20;99.90;;;;;;5049325;28;20860;-65
2022/09/14 03:38:56;;;;;;;7.32;3.40;;;13.20;99.90;;;;;;5057364;28;20036;-65
2022/09/14 03:41:22;;;;;;;9.48;3.42;;;13.20;99.90;;;;;;5045057;28;20041;-64
2022/09/14 03:43:48;;;;;;;8.88;3.42;;;13.20;99.90;;;;;;5060773;28;20032;-64
2022/09/14 03:46:17;;;;;;;8.35;3.10;;;13.20;99.90;;;;;;5047022;28;20048;-64
2022/09/14 03:48:43;;;;;;;10.57;3.17;;;13.20;99.90;;;;;;5056228;28;20114;-64
2022/09/14 03:51:11;;;;;;;6.45;3.10;;;13.20;99.90;;;;;;5050886;28;20040;-65
2022/09/14 03:53:38;;;;;;;8.35;3.10;;;13.20;99.90;;;;;;5050732;28;20075;-65
2022/09/14 03:56:09;;;;;;;8.05;3.33;;;13.40;99.90;;;;;;5056226;28;20052;-65
2022/09/14 03:58:35;;;;;;;7.15;3.03;;;13.30;99.90;;;;;;5044467;28;20380;-65
2022/09/14 04:01:05;;;;;;;6.45;3.10;;;13.20;99.90;;;;;;5060513;28;20048;-65
2022/09/14 04:03:31;;;;;;;6.43;2.80;;;13.30;99.90;;;;;;5039384;28;20048;-65
2022/09/14 04:05:57;;;;;;;7.25;3.17;;;13.30;99.90;;;;;;5059416;28;20048;-64
2022/09/14 04:08:23;;;;;;;9.77;3.30;;;13.30;99.90;;;;;;5056211;28;20044;-66
2022/09/14 04:10:48;;;;;;;5.45;2.65;;;13.40;99.90;;;;;;5062286;28;20483;-65
2022/09/14 04:13:14;;;;;;;6.65;3.33;;;13.40;99.90;;;;;;5052097;28;20049;-64
2022/09/14 04:15:40;;;;;;;8.55;2.90;;;13.40;99.90;;;;;;5062029;28;20123;-65
2022/09/14 04:18:06;;;;;;;6.00;2.80;;;13.40;99.90;;;;;;5047097;28;20073;-65
2022/09/14 04:20:31;;;;;;;8.90;3.30;;;13.50;99.90;;;;;;5058995;28;20424;-65
2022/09/14 04:22:57;;;;;;;10.63;2.95;;;13.40;99.90;;;;;;5042950;28;20053;-65
2022/09/14 04:25:23;;;;;;;6.07;3.00;;;13.40;99.90;;;;;;5059231;28;20032;-65
2022/09/14 04:27:49;;;;;;;9.20;3.53;;;13.50;99.90;;;;;;5048056;28;20115;-65
2022/09/14 04:30:15;;;;;;;8.00;2.90;;;13.50;99.90;;;;;;5054219;28;20437;-65
2022/09/14 04:32:41;;;;;;;8.43;3.00;;;13.50;99.90;;;;;;5051277;28;20456;-64
2022/09/14 04:35:08;;;;;;;8.50;3.17;;;13.60;99.90;;;;;;5050100;28;20037;-65
2022/09/14 04:37:33;;;;;;;7.18;2.92;;;13.50;99.90;;;;;;5055862;28;20439;-64
2022/09/14 04:39:59;;;;;;;7.47;3.20;;;13.60;99.90;;;;;;5044289;28;20095;-64
2022/09/14 04:42:25;;;;;;;8.00;3.08;;;13.50;99.90;;;;;;5059021;28;20048;-65
2022/09/14 04:44:50;;;;;;;6.68;3.22;;;13.60;99.90;;;;;;5043736;28;20479;-64
2022/09/14 04:47:16;;;;;;;6.22;3.15;;;13.50;99.90;;;;;;5056861;28;20558;-64
2022/09/14 04:49:42;;;;;;;6.68;3.30;;;13.50;99.90;;;;;;5045580;28;20102;-64
2022/09/14 04:52:08;;;;;;;7.38;3.65;;;13.40;99.90;;;;;;5054058;28;20751;-65
2022/09/14 04:54:33;;;;;;;8.80;3.15;;;13.50;99.90;;;;;;5049369;28;20091;-65
2022/09/14 04:56:59;;;;;;;6.25;3.35;;;13.50;99.90;;;;;;5048462;28;20272;-65
2022/09/14 04:59:25;;;;;;;6.45;2.75;;;13.50;99.90;;;;;;5055392;28;20037;-65
2022/09/14 05:01:50;;;;;;;8.70;3.00;;;13.60;99.90;;;;;;5044357;28;20091;-65
2022/09/14 05:04:16;;;;;;;6.78;3.08;;;13.50;99.90;;;;;;5059432;28;20580;-65
2022/09/14 05:06:43;;;;;;;6.10;2.90;;;13.60;99.90;;;;;;5051110;28;20479;-65
2022/09/14 05:09:14;;;;;;;8.88;3.20;;;13.50;99.90;;;;;;5060298;28;20063;-65
2022/09/14 05:11:40;;;;;;;8.35;3.40;;;13.50;99.90;;;;;;5061052;28;20040;-65
2022/09/14 05:14:08;;;;;;;7.82;3.30;;;13.50;99.90;;;;;;5050280;28;20107;-64
2022/09/14 05:16:37;;;;;;;8.55;3.10;;;13.50;99.90;;;;;;5052705;28;20040;-65
2022/09/14 05:19:09;;;;;;;8.25;3.05;;;13.60;99.90;;;;;;5047691;28;20045;-66
2022/09/14 05:21:36;;;;;;;5.15;3.13;;;13.60;99.90;;;;;;5056866;28;20131;-65
2022/09/14 05:24:11;;;;;;;6.95;3.08;;;13.70;99.90;;;;;;5042518;28;20040;-64
2022/09/14 05:26:37;;;;;;;7.03;3.10;;;13.70;99.90;;;;;;5056857;28;20041;-65
2022/09/14 05:29:03;;;;;;;7.57;3.25;;;13.80;99.90;;;;;;5047535;28;20088;-65
2022/09/14 05:31:30;;;;;;;8.77;3.10;;;13.80;99.90;;;;;;5034652;28;20124;-65
2022/09/14 05:33:56;;;;;;;6.68;3.00;;;13.70;99.90;;;;;;5052036;28;20376;-65
2022/09/14 05:36:22;;;;;;;9.23;3.13;;;13.80;99.90;;;;;;5047564;28;20387;-65
2022/09/14 05:38:48;;;;;;;8.40;3.00;;;13.80;99.90;;;;;;5055147;28;20048;-65
2022/09/14 05:41:15;;;;;;;9.98;3.10;;;13.80;99.90;;;;;;5044250;28;20037;-65
2022/09/14 05:43:41;;;;;;;8.68;3.35;;;13.80;99.90;;;;;;5058111;28;20052;-65
2022/09/14 05:46:10;;;;;;;7.43;3.20;;;13.80;99.90;;;;;;5042546;28;20305;-65
2022/09/14 05:48:37;;;;;;;8.10;3.17;;;13.90;99.90;;;;;;5055161;28;20049;-65
2022/09/14 05:51:06;;;;;;;8.32;3.35;;;13.80;99.90;;;;;;5048698;28;20127;-64
2022/09/14 05:53:33;;;;;;;9.00;3.17;;;13.80;99.90;;;;;;5049699;28;20391;-64
2022/09/14 05:56:07;;;;;;;9.07;3.40;;;13.80;99.90;;;;;;5053957;28;20103;-64
2022/09/14 05:58:34;;;;;;;7.78;3.40;;;13.80;99.90;;;;;;5048950;28;20212;-65
2022/09/14 06:01:16;;;;;;;7.30;3.45;;;13.80;99.90;;;;;;5062143;28;20112;-64
2022/09/14 06:03:42;;;;;;;6.45;3.20;;;13.80;99.90;;;;;;5049056;28;20052;-65
2022/09/14 06:06:10;;;;;;;8.68;3.72;;;13.80;99.90;;;;;;5060251;28;20053;-64
2022/09/14 06:08:36;;;;;;;7.55;3.03;;;13.90;99.90;;;;;;5062084;28;20122;-65
2022/09/14 06:11:16;;;;;;;7.25;3.65;;;13.90;99.90;;;;;;5064437;28;20123;-66
2022/09/14 06:13:43;;;;;;;7.30;3.40;;;14.00;99.90;;;;;;5049640;28;20324;-65
2022/09/14 06:16:12;;;;;;;7.78;3.40;;;14.00;99.90;;;;;;5061303;28;20432;-65
2022/09/14 06:18:39;;;;;;;5.20;3.10;;;14.00;99.90;;;;;;5045853;28;20121;-64
2022/09/14 06:21:05;;;;;;;7.82;3.55;;;14.00;99.90;;;;;;5060748;28;20044;-64
2022/09/14 06:23:32;;;;;;;9.05;3.65;;;14.10;99.90;;;;;;5048466;28;20109;-65
2022/09/14 06:25:59;;;;;;;8.10;3.35;;;14.20;99.90;;;;;;5056907;28;20044;-66
2022/09/14 06:28:26;;;;;;;7.68;3.10;;;14.20;99.90;;;;;;5053926;28;20040;-66
2022/09/14 06:30:52;;;;;;;6.72;3.42;;;14.20;99.90;;;;;;5051986;28;20498;-65
2022/09/14 06:33:19;;;;;;;8.43;3.42;;;14.50;99.90;;;;;;5057327;28;20174;-65
2022/09/14 06:36:11;;;;;;;8.45;3.42;;;14.30;99.90;;;;;;5047469;28;20045;-65
2022/09/14 06:38:37;;;;;;;11.68;3.15;;;14.50;99.90;;;;;;5042445;28;20144;-65
2022/09/14 06:41:05;;;;;;;9.13;2.85;;;14.50;99.90;;;;;;5063871;28;20114;-65
2022/09/14 06:43:34;;;;;;;6.47;3.00;;;14.70;99.90;;;;;;5055141;28;20045;-66
2022/09/14 06:45:59;;;;;;;6.88;2.90;;;15.10;99.90;;;;;;5054205;28;20064;-66
2022/09/14 06:48:31;;;;;;;6.88;2.63;;;15.30;99.90;;;;;;5050481;28;20041;-66
2022/09/14 06:50:57;;;;;;;6.65;2.50;;;15.50;99.90;;;;;;5058515;28;20733;-65
2022/09/14 06:53:23;;;;;;;6.35;2.70;;;15.70;99.90;;;;;;5044818;28;20041;-67
2022/09/14 06:55:48;;;;;;;5.97;2.75;;;15.80;99.90;;;;;;5062305;28;20044;-65
2022/09/14 06:58:14;;;;;;;6.15;2.53;;;15.70;99.90;;;;;;5047801;28;20040;-67
2022/09/14 07:00:40;;;;;;;5.88;2.00;;;15.60;99.90;;;;;;5055710;28;20041;-66
2022/09/14 07:03:06;;;;;;;9.18;2.80;;;15.70;99.90;;;;;;5051757;28;20040;-66
2022/09/14 07:05:31;;;;;;;5.22;2.42;;;15.70;99.90;;;;;;5054890;28;20044;-66
2022/09/14 07:07:57;;;;;;;6.88;2.25;;;15.60;99.90;;;;;;5060388;28;20056;-65
2022/09/14 07:10:26;;;;;;;7.57;2.35;;;15.70;99.90;;;;;;5063069;28;20124;-67
2022/09/14 07:12:53;;;;;;;10.02;2.50;;;15.60;99.90;;;;;;5063253;28;20059;-65
2022/09/14 07:15:20;;;;;;;7.75;2.33;;;15.70;99.90;;;;;;5045733;28;20468;-66
2022/09/14 07:17:46;;;;;;;5.25;2.22;;;15.80;99.90;;;;;;5059644;28;20142;-65
2022/09/14 07:20:14;;;;;;;7.30;2.20;;;15.80;99.90;;;;;;5048721;28;20080;-66
2022/09/14 07:22:40;;;;;;;7.75;2.35;;;15.90;99.90;;;;;;5053407;28;20491;-66
2022/09/14 07:25:06;;;;;;;5.90;2.17;;;15.90;99.90;;;;;;5052315;28;20086;-65
2022/09/14 07:27:33;;;;;;;7.93;2.35;;;16.00;99.90;;;;;;5049773;28;20045;-66
2022/09/14 07:29:58;;;;;;;5.13;2.10;;;16.00;99.90;;;;;;5056962;28;20070;-64
2022/09/14 07:32:24;;;;;;;5.20;2.00;;;16.10;99.90;;;;;;5046452;28;20040;-66
2022/09/14 07:34:50;;;;;;;6.60;2.40;;;16.10;99.90;;;;;;5061596;28;20098;-66
2022/09/14 07:37:15;;;;;;;5.13;1.92;;;16.10;99.90;;;;;;5044327;28;20047;-66
2022/09/14 07:39:41;;;;;;;9.68;2.50;;;16.10;99.90;;;;;;5058443;28;20087;-65
2022/09/14 07:42:07;;;;;;;5.20;2.00;;;16.20;99.90;;;;;;5048619;28;20036;-66
2022/09/14 07:44:32;;;;;;;7.53;2.30;;;16.30;99.90;;;;;;5054244;28;20084;-66
2022/09/14 07:46:58;;;;;;;6.00;2.03;;;16.40;99.90;;;;;;5051293;28;20044;-66
2022/09/14 07:49:24;;;;;;;7.45;1.98;;;16.40;99.90;;;;;;5050595;28;20041;-67
2022/09/14 07:51:51;;;;;;;7.53;1.80;;;16.50;99.90;;;;;;5055142;28;20041;-66
2022/09/14 07:54:18;;;;;;;6.10;1.83;;;16.60;99.90;;;;;;5045804;28;20048;-67
2022/09/14 07:56:44;;;;;;;8.68;1.92;;;16.70;99.90;;;;;;5059712;28;20049;-67
2022/09/14 07:59:12;;;;;;;6.68;1.80;;;16.70;99.90;;;;;;5043959;28;20053;-67
2022/09/14 08:01:38;;;;;;;6.30;1.50;;;16.80;99.90;;;;;;5057332;28;20044;-67
2022/09/14 08:04:05;;;;;;;6.28;1.42;;;16.80;99.90;;;;;;5048809;28;20919;-68
2022/09/14 08:06:31;;;;;;;4.53;1.20;;;16.80;99.90;;;;;;5058619;28;20056;-67
2022/09/14 08:08:57;;;;;;;7.85;1.30;;;16.90;99.90;;;;;;5054634;28;20047;-67
2022/09/14 08:11:26;;;;;;;5.78;1.40;;;16.90;99.90;;;;;;5062286;28;20040;-67
2022/09/14 08:13:54;;;;;;;7.72;1.85;;;17.10;99.90;;;;;;5046845;28;20071;-66
2022/09/14 08:16:21;;;;;;;5.55;1.52;;;17.20;99.90;;;;;;5060107;28;20052;-67
2022/09/14 08:18:51;;;;;;;4.35;1.30;;;17.30;99.90;;;;;;5043872;28;20072;-66
2022/09/14 08:21:17;;;;;;;7.03;1.42;;;17.40;99.90;;;;;;5056509;28;20120;-67
2022/09/14 08:23:43;;;;;;;7.85;1.40;;;17.50;99.90;;;;;;5048168;28;20070;-67
2022/09/14 08:26:18;;;;;;;7.13;1.20;;;17.50;99.90;;;;;;5052831;28;20047;-67
2022/09/14 08:28:44;;;;;;;6.32;1.42;;;17.50;99.90;;;;;;5054562;28;20054;-67
2022/09/14 08:31:13;;;;;;;6.43;1.45;;;17.60;99.90;;;;;;5047238;28;20045;-67
2022/09/14 08:33:44;;;;;;;10.88;1.70;;;17.40;99.90;;;;;;5058421;28;20415;-67
2022/09/14 08:36:13;;;;;;;6.70;1.42;;;17.60;99.90;;;;;;5044045;28;20107;-66
2022/09/14 08:38:39;;;;;;;9.82;1.55;;;17.70;99.90;;;;;;5056081;28;20574;-67
2022/09/14 08:41:15;;;;;;;7.88;1.50;;;17.80;99.90;;;;;;5048222;28;20036;-66
2022/09/14 08:43:41;;;;;;;6.93;1.25;;;17.80;99.90;;;;;;5051182;28;20041;-67
2022/09/14 08:46:16;;;;;;;8.20;1.48;;;18.00;99.90;;;;;;5054041;28;20040;-67
2022/09/14 08:48:47;;;;;;;6.40;1.50;;;18.30;99.90;;;;;;5046429;28;20100;-68
2022/09/14 08:51:14;;;;;;;6.90;1.67;;;18.30;99.90;;;;;;5059950;28;20490;-67
2022/09/14 08:53:41;;;;;;;5.15;1.70;;;18.30;99.90;;;;;;5041489;28;20702;-66
2022/09/14 08:56:30;;;;;;;6.32;1.60;;;18.30;99.90;;;;;;5061017;28;20490;-66
2022/09/14 08:59:04;;;;;;;8.85;1.50;;;18.20;99.90;;;;;;5060454;28;20474;-66
2022/09/14 09:01:36;;;;;;;;;;;18.20;99.90;;;;;;5049260;28;20510;-68
2022/09/14 09:04:20;;;;;;;6.22;1.48;;;18.30;99.90;;;;;;5055553;28;19920;-63
2022/09/14 09:06:46;;;;;;;10.30;1.60;;;18.40;99.90;;;;;;5051555;28;20059;-63
2022/09/14 09:09:42;;;;;;;7.00;1.38;;;18.50;99.90;;;;;;5060002;28;21206;-63
2022/09/14 09:12:19;;;;;;;6.28;1.23;;;18.70;99.90;;;;;;5061132;28;20059;-63
2022/09/14 09:14:52;;;;;;;9.68;1.25;;;18.80;99.90;;;;;;5047409;28;20041;-63
2022/09/14 09:17:40;;;;;;;7.85;1.40;;;19.10;99.90;;;;;;5058926;28;20048;-63
2022/09/14 09:20:32;;;;;;;5.45;1.15;;;19.20;99.90;;;;;;5044836;28;20037;-63
2022/09/14 09:23:07;;;;;;;6.05;1.17;;;19.30;99.90;;;;;;5052653;28;20155;-63
2022/09/14 09:26:06;;;;;;;5.75;1.00;;;19.50;99.90;;;;;;5046896;28;20045;-63
2022/09/14 09:28:33;;;;;;;13.10;1.90;;;19.60;99.90;;;;;;5057683;28;20048;-63
2022/09/14 09:31:03;;;;;;;6.82;1.13;;;20.10;99.90;;;;;;5046464;28;20041;-63
2022/09/14 09:33:30;;;;;;;7.25;1.33;;;20.90;99.90;;;;;;5058566;28;20036;-63
2022/09/14 09:35:56;;;;;;;9.95;1.40;;;20.80;99.90;;;;;;5053539;28;20052;-64
2022/09/14 09:38:26;;;;;;;5.18;1.05;;;21.70;99.90;;;;;;5054350;28;20045;-63
2022/09/14 09:40:57;;;;;;;7.25;1.20;;;22.20;99.90;;;;;;5059056;28;20441;-63
2022/09/14 09:43:23;;;;;;;7.88;1.00;;;22.00;99.90;;;;;;5048571;28;20045;-64
2022/09/14 09:45:58;;;;;;;5.85;1.10;;;22.10;99.90;;;;;;5062029;28;20040;-63
2022/09/14 09:48:43;;;;;;;11.00;1.80;;;22.10;99.90;;;;;;5046817;28;20041;-63
2022/09/14 09:51:11;;;;;;;;;;;22.20;99.90;;;;;;5056656;28;20037;-63
2022/09/14 09:53:49;;;;;;;6.03;1.20;;;21.90;99.90;;;;;;5053353;28;19928;-63
2022/09/14 09:56:58;;;;;;;4.97;0.90;;;22.00;99.90;;;;;;5048841;28;20058;-63
2022/09/14 09:59:50;;;;;;;4.60;0.85;;;22.20;99.90;;;;;;5028253;28;20399;-64
2022/09/14 10:02:24;;;;;;;5.97;1.48;;;22.00;99.90;;;;;;5042723;28;20514;-63
2022/09/14 10:05:08;;;;;;;8.70;1.67;;;22.20;99.90;;;;;;5051809;28;20088;-63
2022/09/14 10:07:52;;;;;;;6.35;1.27;;;22.30;99.90;;;;;;5056356;28;20049;-63
2022/09/14 10:10:34;;;;;;;5.72;1.25;;;22.30;99.90;;;;;;5048992;28;20040;-63
2022/09/14 10:13:02;;;;;;;6.15;1.25;;;22.30;99.90;;;;;;5064834;28;20037;-63
2022/09/14 10:15:33;;;;;;;8.65;1.70;;;21.90;99.90;;;;;;5053383;28;20045;-63
2022/09/14 10:18:11;;;;;;;4.93;1.17;;;21.90;99.90;;;;;;5057445;28;20052;-63
2022/09/14 10:20:50;;;;;;;4.05;1.10;;;21.60;99.90;;;;;;5047162;28;20696;-63
2022/09/14 10:23:21;;;;;;;5.78;0.98;;;21.70;99.90;;;;;;5047003;28;20429;-63
2022/09/14 10:25:49;;;;;;;7.22;1.00;;;21.20;99.90;;;;;;5064362;28;20029;-63
2022/09/14 10:28:23;;;;;;;5.07;1.25;;;21.30;99.90;;;;;;5055828;28;20052;-63
2022/09/14 10:30:59;;;;;;;4.60;1.67;;;21.60;99.90;;;;;;5056666;28;20086;-63
2022/09/14 10:33:25;;;;;;;6.88;1.30;;;21.60;99.90;;;;;;5049122;28;20494;-63
2022/09/14 10:36:01;;;;;;;4.95;1.30;;;21.10;99.90;;;;;;5061832;28;20044;-63
2022/09/14 10:38:30;;;;;;;6.50;1.13;;;21.10;99.90;;;;;;5045323;28;20048;-63
2022/09/14 10:41:12;;;;;;;6.72;1.55;;;20.90;99.90;;;;;;5063783;28;20055;-63
2022/09/14 10:43:57;;;;;;;6.15;1.00;;;20.50;99.90;;;;;;5054501;28;20049;-63
2022/09/14 10:46:58;;;;;;;7.95;1.48;;;20.70;99.90;;;;;;5057308;28;20406;-64
2022/09/14 10:49:58;;;;;;;5.75;1.20;;;20.60;99.90;;;;;;5045054;28;20052;-63
2022/09/14 10:52:59;;;;;;;5.07;1.00;;;20.70;99.90;;;;;;5062827;28;20101;-66
2022/09/14 10:55:42;;;;;;;6.32;1.27;;;20.70;99.90;;;;;;5047217;28;20055;-64
2022/09/14 10:58:35;;;;;;;4.93;1.33;;;20.80;99.90;;;;;;5046981;28;20053;-64
2022/09/14 11:01:22;;;;;;;7.50;1.42;;;20.70;99.90;;;;;;5063808;28;20044;-63
2022/09/14 11:04:35;;;;;;;6.43;1.40;;;20.80;99.90;;;;;;5049526;28;20083;-63
2022/09/14 11:07:07;;;;;;;4.13;0.90;;;20.70;99.90;;;;;;5051302;28;20124;-63
2022/09/14 11:09:38;;;;;;;6.32;1.40;;;20.70;99.90;;;;;;5063263;28;20048;-63
2022/09/14 11:12:33;;;;;;;6.45;1.35;;;20.80;99.90;;;;;;5063056;28;20091;-63
2022/09/14 11:15:07;;;;;;;5.25;1.15;;;20.70;99.90;;;;;;5047579;28;20053;-63
2022/09/14 11:17:37;;;;;;;4.68;1.10;;;20.80;99.90;;;;;;5061625;28;20522;-62
2022/09/14 11:20:39;;;;;;;6.10;1.10;;;20.80;99.90;;;;;;5039254;28;20047;-72
2022/09/14 11:23:26;;;;;;;5.53;1.00;;;20.70;99.90;;;;;;5053594;28;20059;-59
2022/09/14 11:26:09;;;;;;;6.97;1.23;;;21.00;99.90;;;;;;5051697;28;20040;-71
2022/09/14 11:28:47;;;;;;;5.22;1.40;;;20.80;99.90;;;;;;5061729;28;20040;-60
2022/09/14 11:31:25;;;;;;;4.95;1.02;;;20.70;99.90;;;;;;5062324;28;20036;-70
2022/09/14 11:34:13;;;;;;;5.28;1.15;;;20.70;99.90;;;;;;5061430;28;20052;-69
2022/09/14 11:37:14;;;;;;;4.97;1.30;;;20.70;99.90;;;;;;5045958;28;20048;-69
2022/09/14 11:39:47;;;;;;;6.22;2.35;;;20.70;99.90;;;;;;5053771;28;20063;-68
2022/09/14 11:42:29;;;;;;;9.95;3.33;;;20.70;99.90;;;;;;5061920;28;20123;-69
2022/09/14 11:45:04;;;;;;;5.50;2.30;;;20.80;99.90;;;;;;5061513;28;20388;-67
2022/09/14 11:47:38;;;;;;;5.63;2.50;;;20.80;99.90;;;;;;5047776;28;20533;-68
2022/09/14 11:50:18;;;;;;;7.85;2.08;;;20.90;99.90;;;;;;5058828;28;20079;-67
2022/09/14 11:52:44;;;;;;;6.35;2.40;;;21.20;99.90;;;;;;5044223;28;20048;-68
2022/09/14 11:55:16;;;;;;;5.95;2.42;;;21.20;99.90;;;;;;5059590;28;20449;-68
2022/09/14 11:57:44;;;;;;;7.88;2.40;;;21.40;99.90;;;;;;5061302;28;20045;-68
2022/09/14 12:00:25;;;;;;;6.55;2.03;;;21.50;99.90;;;;;;5061561;28;20076;-68
2022/09/14 12:03:13;;;;;;;5.80;2.05;;;21.60;99.90;;;;;;5047286;28;20041;-68
2022/09/14 12:05:40;;;;;;;6.53;1.50;;;21.70;99.90;;;;;;5056056;28;20068;-62
2022/09/14 12:08:24;;;;;;;7.00;1.40;;;21.70;99.90;;;;;;5054973;28;20079;-69
2022/09/14 12:11:06;;;;;;;6.03;1.40;;;21.50;99.90;;;;;;5062198;28;20153;-67
2022/09/14 12:13:33;;;;;;;6.63;1.25;;;21.40;99.90;;;;;;5046728;28;20507;-68
2022/09/14 12:16:08;;;;;;;8.63;1.67;;;21.30;99.90;;;;;;5034534;28;20037;-67
2022/09/14 12:18:39;;;;;;;6.95;1.45;;;21.20;99.90;;;;;;5043371;28;20399;-68
2022/09/14 12:21:24;;;;;;;5.75;1.40;;;21.00;99.90;;;;;;5059334;28;20700;-68
2022/09/14 12:23:56;;;;;;;9.52;1.85;;;21.30;99.90;;;;;;5047231;28;20040;-67
2022/09/14 12:26:33;;;;;;;6.93;1.38;;;21.30;99.90;;;;;;5061877;28;20052;-68
2022/09/14 12:29:06;;;;;;;4.70;1.23;;;21.40;99.90;;;;;;5059990;28;20119;-67
2022/09/14 12:31:46;;;;;;;8.50;1.73;;;21.70;99.90;;;;;;5053805;28;20055;-67
2022/09/14 12:34:26;;;;;;;8.30;1.67;;;21.60;99.90;;;;;;5054405;28;20041;-68
2022/09/14 12:36:52;;;;;;;7.65;1.83;;;21.80;99.90;;;;;;5059238;28;20181;-68
2022/09/14 12:39:22;;;;;;;6.97;1.70;;;21.90;99.90;;;;;;5033284;28;20627;-68
2022/09/14 12:41:48;;;;;;;6.80;1.70;;;21.70;99.90;;;;;;5051859;28;20049;-68
2022/09/14 12:44:34;;;;;;;6.38;2.33;;;21.40;99.90;;;;;;5053615;28;20033;-68
2022/09/14 12:47:26;;;;;;;4.70;1.27;;;21.40;99.90;;;;;;5045357;28;20036;-68
2022/09/14 12:49:56;;;;;;;8.45;1.05;;;21.40;99.90;;;;;;5053630;28;20053;-68
2022/09/14 12:52:43;;;;;;;11.00;2.08;;;21.50;99.90;;;;;;5044927;28;20049;-68
2022/09/14 12:55:43;;;;;;;11.57;2.25;;;21.70;99.90;;;;;;5052793;28;20088;-70
2022/09/14 12:58:27;;;;;;;11.43;2.08;;;21.50;99.90;;;;;;5041869;28;20075;-70
2022/09/14 13:01:13;;;;;;;11.37;2.03;;;21.60;99.90;;;;;;5058863;28;20055;-69
2022/09/14 13:03:49;;;;;;;7.50;1.15;;;21.50;99.90;;;;;;5048413;28;20527;-69
2022/09/14 13:06:16;;;;;;;4.18;0.93;;;21.60;99.90;;;;;;5042311;28;20061;-70
2022/09/14 13:08:48;;;;;;;5.30;1.25;;;21.60;99.90;;;;;;5045012;28;20048;-69
2022/09/14 13:11:23;;;;;;;9.98;1.52;;;21.60;99.90;;;;;;5046317;28;20128;-69
2022/09/14 13:13:50;;;;;;;9.23;1.48;;;21.50;99.90;;;;;;5045897;28;20068;-69
2022/09/14 13:16:29;;;;;;;7.68;1.50;;;21.60;99.90;;;;;;5047286;28;20406;-69